sensor_id;sensor_type;location;lat;lon;timestamp;temperature;humidity
19292;DHT22;9779;51.756;7.450;2022-12-18T00:01:50;-6.70;99.90
19292;DHT22;9779;51.756;7.450;2022-12-18T00:04:23;-6.70;99.90
19292;DHT22;9779;51.756;7.450;2022-12-18T00:06:49;-6.70;99.90
19292;DHT22;9779;51.756;7.450;2022-12-18T00:09:15;-6.80;99.90
19292;DHT22;9779;51.756;7.450;2022-12-18T00:11:41;-6.80;99.90
19292;DHT22;9779;51.756;7.450;2022-12-18T00:14:09;-6.80;99.90
19292;DHT22;9779;51.756;7.450;2022-12-18T00:16:35;-6.80;99.90
19292;DHT22;9779;51.756;7.450;2022-12-18T00:19:02;-6.90;99.90
19292;DHT22;9779;51.756;7.450;2022-12-18T00:21:29;-6.80;99.90
19292;DHT22;9779;51.756;7.450;2022-12-18T00:23:55;-6.90;99.90
19292;DHT22;9779;51.756;7.450;2022-12-18T00:26:26;-6.90;99.90
19292;DHT22;9779;51.756;7.450;2022-12-18T00:28:53;-6.90;99.90
19292;DHT22;9779;51.756;7.450;2022-12-18T00:31:21;-6.90;99.90
19292;DHT22;9779;51.756;7.450;2022-12-18T00:33:47;-6.90;99.90
19292;DHT22;9779;51.756;7.450;2022-12-18T00:36:22;-6.90;99.90
19292;DHT22;9779;51.756;7.450;2022-12-18T00:38:48;-6.90;99.90
19292;DHT22;9779;51.756;7.450;2022-12-18T00:41:15;-7.00;99.90
19292;DHT22;9779;51.756;7.450;2022-12-18T00:44:00;-6.90;99.90
19292;DHT22;9779;51.756;7.450;2022-12-18T00:46:26;-7.00;99.90
19292;DHT22;9779;51.756;7.450;2022-12-18T00:48:51;-7.00;99.90
19292;DHT22;9779;51.756;7.450;2022-12-18T00:51:17;-7.00;99.90
19292;DHT22;9779;51.756;7.450;2022-12-18T00:53:42;-7.00;99.90
19292;DHT22;9779;51.756;7.450;2022-12-18T00:56:08;-7.00;99.90
19292;DHT22;9779;51.756;7.450;2022-12-18T00:58:33;-7.10;99.90
19292;DHT22;9779;51.756;7.450;2022-12-18T01:01:04;-7.10;99.90
19292;DHT22;9779;51.756;7.450;2022-12-18T01:03:29;-7.10;99.90
19292;DHT22;9779;51.756;7.450;2022-12-18T01:05:56;-7.10;99.90
19292;DHT22;9779;51.756;7.450;2022-12-18T01:08:21;-7.20;99.90
19292;DHT22;9779;51.756;7.450;2022-12-18T01:10:47;-7.20;99.90
19292;DHT22;9779;51.756;7.450;2022-12-18T01:13:12;-7.20;99.90
19292;DHT22;9779;51.756;7.450;2022-12-18T01:15:38;-7.20;99.90
19292;DHT22;9779;51.756;7.450;2022-12-18T01:18:03;-7.20;99.90
19292;DHT22;9779;51.756;7.450;2022-12-18T01:20:32;-7.30;99.90
19292;DHT22;9779;51.756;7.450;2022-12-18T01:22:58;-7.30;99.90
19292;DHT22;9779;51.756;7.450;2022-12-18T01:25:23;-7.30;99.90
19292;DHT22;9779;51.756;7.450;2022-12-18T01:27:49;-7.30;99.90
19292;DHT22;9779;51.756;7.450;2022-12-18T01:30:15;-7.30;99.90
19292;DHT22;9779;51.756;7.450;2022-12-18T01:32:40;-7.30;99.90
19292;DHT22;9779;51.756;7.450;2022-12-18T01:35:07;-7.30;99.90
19292;DHT22;9779;51.756;7.450;2022-12-18T01:37:32;-7.40;99.90
19292;DHT22;9779;51.756;7.450;2022-12-18T01:39:58;-7.40;99.90
19292;DHT22;9779;51.756;7.450;2022-12-18T01:42:24;-7.40;99.90
19292;DHT22;9779;51.756;7.450;2022-12-18T01:45:01;-7.40;99.90
19292;DHT22;9779;51.756;7.450;2022-12-18T01:47:53;-7.40;99.90
19292;DHT22;9779;51.756;7.450;2022-12-18T01:50:28;-7.40;99.90
19292;DHT22;9779;51.756;7.450;2022-12-18T01:52:59;-7.50;99.90
19292;DHT22;9779;51.756;7.450;2022-12-18T01:55:29;-7.50;99.90
19292;DHT22;9779;51.756;7.450;2022-12-18T01:57:58;-7.50;99.90
19292;DHT22;9779;51.756;7.450;2022-12-18T02:00:25;-7.50;99.90
19292;DHT22;9779;51.756;7.450;2022-12-18T02:02:52;-7.50;99.90
19292;DHT22;9779;51.756;7.450;2022-12-18T02:05:34;-7.60;99.90
19292;DHT22;9779;51.756;7.450;2022-12-18T02:08:09;-7.60;99.90
19292;DHT22;9779;51.756;7.450;2022-12-18T02:13:53;-7.60;99.90
19292;DHT22;9779;51.756;7.450;2022-12-18T02:16:34;-7.70;99.90
19292;DHT22;9779;51.756;7.450;2022-12-18T02:22:29;-7.70;99.90
19292;DHT22;9779;51.756;7.450;2022-12-18T02:25:29;-7.70;99.90
19292;DHT22;9779;51.756;7.450;2022-12-18T02:28:00;-7.70;99.90
19292;DHT22;9779;51.756;7.450;2022-12-18T02:30:30;-7.70;99.90
19292;DHT22;9779;51.756;7.450;2022-12-18T02:32:57;-7.70;99.90
19292;DHT22;9779;51.756;7.450;2022-12-18T02:35:26;-7.70;99.90
19292;DHT22;9779;51.756;7.450;2022-12-18T02:37:53;-7.70;99.90
19292;DHT22;9779;51.756;7.450;2022-12-18T02:40:20;-7.80;99.90
19292;DHT22;9779;51.756;7.450;2022-12-18T02:42:47;-7.80;99.90
19292;DHT22;9779;51.756;7.450;2022-12-18T02:45:12;-7.80;99.90
19292;DHT22;9779;51.756;7.450;2022-12-18T02:47:41;-7.90;99.90
19292;DHT22;9779;51.756;7.450;2022-12-18T02:50:10;-7.90;99.90
19292;DHT22;9779;51.756;7.450;2022-12-18T03:01:13;-8.00;99.90
19292;DHT22;9779;51.756;7.450;2022-12-18T03:04:02;-8.00;99.90
19292;DHT22;9779;51.756;7.450;2022-12-18T03:06:37;-8.00;99.90
19292;DHT22;9779;51.756;7.450;2022-12-18T03:09:08;-8.00;99.90
19292;DHT22;9779;51.756;7.450;2022-12-18T03:11:37;-8.00;99.90
19292;DHT22;9779;51.756;7.450;2022-12-18T03:14:25;-8.00;99.90
19292;DHT22;9779;51.756;7.450;2022-12-18T03:16:55;-8.00;99.90
19292;DHT22;9779;51.756;7.450;2022-12-18T03:19:27;-8.10;99.90
19292;DHT22;9779;51.756;7.450;2022-12-18T03:22:00;-8.00;99.90
19292;DHT22;9779;51.756;7.450;2022-12-18T03:24:29;-8.00;99.90
19292;DHT22;9779;51.756;7.450;2022-12-18T03:27:02;-8.10;99.90
19292;DHT22;9779;51.756;7.450;2022-12-18T03:29:38;-8.10;99.90
19292;DHT22;9779;51.756;7.450;2022-12-18T03:32:12;-8.10;99.90
19292;DHT22;9779;51.756;7.450;2022-12-18T03:34:42;-8.10;99.90
19292;DHT22;9779;51.756;7.450;2022-12-18T03:37:09;-8.10;99.90
19292;DHT22;9779;51.756;7.450;2022-12-18T03:39:36;-8.10;99.90
19292;DHT22;9779;51.756;7.450;2022-12-18T03:42:15;-8.10;99.90
19292;DHT22;9779;51.756;7.450;2022-12-18T03:44:59;-8.20;99.90
19292;DHT22;9779;51.756;7.450;2022-12-18T03:47:40;-8.20;99.90
19292;DHT22;9779;51.756;7.450;2022-12-18T03:50:26;-8.20;99.90
19292;DHT22;9779;51.756;7.450;2022-12-18T03:53:04;-8.20;99.90
19292;DHT22;9779;51.756;7.450;2022-12-18T03:55:34;-8.20;99.90
19292;DHT22;9779;51.756;7.450;2022-12-18T03:58:02;-8.30;99.90
19292;DHT22;9779;51.756;7.450;2022-12-18T04:00:29;-8.30;99.90
19292;DHT22;9779;51.756;7.450;2022-12-18T04:02:56;-8.30;99.90
19292;DHT22;9779;51.756;7.450;2022-12-18T04:05:27;-8.30;99.90
19292;DHT22;9779;51.756;7.450;2022-12-18T04:07:55;-8.30;99.90
19292;DHT22;9779;51.756;7.450;2022-12-18T04:10:21;-8.30;99.90
19292;DHT22;9779;51.756;7.450;2022-12-18T04:12:47;-8.30;99.90
19292;DHT22;9779;51.756;7.450;2022-12-18T04:15:13;-8.30;99.90
19292;DHT22;9779;51.756;7.450;2022-12-18T04:17:45;-8.40;99.90
19292;DHT22;9779;51.756;7.450;2022-12-18T04:20:12;-8.30;99.90
19292;DHT22;9779;51.756;7.450;2022-12-18T04:22:37;-8.30;99.90
19292;DHT22;9779;51.756;7.450;2022-12-18T04:25:03;-8.40;99.90
19292;DHT22;9779;51.756;7.450;2022-12-18T04:27:29;-8.40;99.90
19292;DHT22;9779;51.756;7.450;2022-12-18T04:29:54;-8.40;99.90
19292;DHT22;9779;51.756;7.450;2022-12-18T04:32:20;-8.40;99.90
19292;DHT22;9779;51.756;7.450;2022-12-18T04:34:45;-8.30;99.90
19292;DHT22;9779;51.756;7.450;2022-12-18T04:37:11;-8.40;99.90
19292;DHT22;9779;51.756;7.450;2022-12-18T04:39:37;-8.40;99.90
19292;DHT22;9779;51.756;7.450;2022-12-18T04:42:02;-8.40;99.90
19292;DHT22;9779;51.756;7.450;2022-12-18T04:44:28;-8.50;99.90
19292;DHT22;9779;51.756;7.450;2022-12-18T04:46:53;-8.50;99.90
19292;DHT22;9779;51.756;7.450;2022-12-18T04:49:19;-8.50;99.90
19292;DHT22;9779;51.756;7.450;2022-12-18T04:51:44;-8.50;99.90
19292;DHT22;9779;51.756;7.450;2022-12-18T04:54:10;-8.50;99.90
19292;DHT22;9779;51.756;7.450;2022-12-18T04:56:36;-8.40;99.90
19292;DHT22;9779;51.756;7.450;2022-12-18T04:59:01;-8.40;99.90
19292;DHT22;9779;51.756;7.450;2022-12-18T05:01:27;-8.50;99.90
19292;DHT22;9779;51.756;7.450;2022-12-18T05:03:52;-8.50;99.90
19292;DHT22;9779;51.756;7.450;2022-12-18T05:06:18;-8.50;99.90
19292;DHT22;9779;51.756;7.450;2022-12-18T05:08:43;-8.50;99.90
19292;DHT22;9779;51.756;7.450;2022-12-18T05:11:12;-8.60;99.90
19292;DHT22;9779;51.756;7.450;2022-12-18T05:13:40;-8.60;99.90
19292;DHT22;9779;51.756;7.450;2022-12-18T05:16:07;-8.60;99.90
19292;DHT22;9779;51.756;7.450;2022-12-18T05:18:32;-8.60;99.90
19292;DHT22;9779;51.756;7.450;2022-12-18T05:20:58;-8.60;99.90
19292;DHT22;9779;51.756;7.450;2022-12-18T05:23:25;-8.60;99.90
19292;DHT22;9779;51.756;7.450;2022-12-18T05:25:56;-8.60;99.90
19292;DHT22;9779;51.756;7.450;2022-12-18T05:28:22;-8.60;99.90
19292;DHT22;9779;51.756;7.450;2022-12-18T05:30:49;-8.60;99.90
19292;DHT22;9779;51.756;7.450;2022-12-18T05:33:16;-8.60;99.90
19292;DHT22;9779;51.756;7.450;2022-12-18T05:35:41;-8.60;99.90
19292;DHT22;9779;51.756;7.450;2022-12-18T05:38:07;-8.60;99.90
19292;DHT22;9779;51.756;7.450;2022-12-18T05:40:34;-8.60;99.90
19292;DHT22;9779;51.756;7.450;2022-12-18T05:42:59;-8.70;99.90
19292;DHT22;9779;51.756;7.450;2022-12-18T05:45:25;-8.70;99.90
19292;DHT22;9779;51.756;7.450;2022-12-18T05:47:50;-8.70;99.90
19292;DHT22;9779;51.756;7.450;2022-12-18T05:50:16;-8.70;99.90
19292;DHT22;9779;51.756;7.450;2022-12-18T05:52:41;-8.70;99.90
19292;DHT22;9779;51.756;7.450;2022-12-18T05:55:07;-8.70;99.90
19292;DHT22;9779;51.756;7.450;2022-12-18T05:57:33;-8.70;99.90
19292;DHT22;9779;51.756;7.450;2022-12-18T05:59:58;-8.70;99.90
19292;DHT22;9779;51.756;7.450;2022-12-18T06:02:24;-8.70;99.90
19292;DHT22;9779;51.756;7.450;2022-12-18T06:04:49;-8.70;99.90
19292;DHT22;9779;51.756;7.450;2022-12-18T06:07:15;-8.70;99.90
19292;DHT22;9779;51.756;7.450;2022-12-18T06:09:41;-8.70;99.90
19292;DHT22;9779;51.756;7.450;2022-12-18T06:12:06;-8.70;99.90
19292;DHT22;9779;51.756;7.450;2022-12-18T06:14:32;-8.70;99.90
19292;DHT22;9779;51.756;7.450;2022-12-18T06:16:57;-8.70;99.90
19292;DHT22;9779;51.756;7.450;2022-12-18T06:19:23;-8.70;99.90
19292;DHT22;9779;51.756;7.450;2022-12-18T06:21:48;-8.70;99.90
19292;DHT22;9779;51.756;7.450;2022-12-18T06:24:14;-8.80;99.90
19292;DHT22;9779;51.756;7.450;2022-12-18T06:26:40;-8.70;99.90
19292;DHT22;9779;51.756;7.450;2022-12-18T06:29:06;-8.70;99.90
19292;DHT22;9779;51.756;7.450;2022-12-18T06:31:32;-8.80;99.90
19292;DHT22;9779;51.756;7.450;2022-12-18T06:33:57;-8.80;99.90
19292;DHT22;9779;51.756;7.450;2022-12-18T06:36:23;-8.80;99.90
19292;DHT22;9779;51.756;7.450;2022-12-18T06:38:48;-8.80;99.90
19292;DHT22;9779;51.756;7.450;2022-12-18T06:41:17;-8.80;99.90
19292;DHT22;9779;51.756;7.450;2022-12-18T06:43:43;-8.80;99.90
19292;DHT22;9779;51.756;7.450;2022-12-18T06:46:09;-8.90;99.90
19292;DHT22;9779;51.756;7.450;2022-12-18T06:48:35;-8.90;99.90
19292;DHT22;9779;51.756;7.450;2022-12-18T06:51:01;-8.90;99.90
19292;DHT22;9779;51.756;7.450;2022-12-18T06:53:27;-8.90;99.90
19292;DHT22;9779;51.756;7.450;2022-12-18T06:55:59;-8.90;99.90
19292;DHT22;9779;51.756;7.450;2022-12-18T06:58:25;-8.90;99.90
19292;DHT22;9779;51.756;7.450;2022-12-18T07:00:50;-8.90;99.90
19292;DHT22;9779;51.756;7.450;2022-12-18T07:03:16;-8.90;99.90
19292;DHT22;9779;51.756;7.450;2022-12-18T07:05:41;-8.90;99.90
19292;DHT22;9779;51.756;7.450;2022-12-18T07:08:07;-8.90;99.90
19292;DHT22;9779;51.756;7.450;2022-12-18T07:10:33;-8.90;99.90
19292;DHT22;9779;51.756;7.450;2022-12-18T07:12:59;-8.90;99.90
19292;DHT22;9779;51.756;7.450;2022-12-18T07:15:24;-8.90;99.90
19292;DHT22;9779;51.756;7.450;2022-12-18T07:17:50;-8.90;99.90
19292;DHT22;9779;51.756;7.450;2022-12-18T07:20:15;-8.90;99.90
19292;DHT22;9779;51.756;7.450;2022-12-18T07:22:41;-8.90;99.90
19292;DHT22;9779;51.756;7.450;2022-12-18T07:25:07;-8.90;99.90
19292;DHT22;9779;51.756;7.450;2022-12-18T07:27:32;-8.90;99.90
19292;DHT22;9779;51.756;7.450;2022-12-18T07:29:58;-8.90;99.90
19292;DHT22;9779;51.756;7.450;2022-12-18T07:32:23;-8.90;99.90
19292;DHT22;9779;51.756;7.450;2022-12-18T07:34:49;-8.80;99.90
19292;DHT22;9779;51.756;7.450;2022-12-18T07:37:15;-8.80;99.90
19292;DHT22;9779;51.756;7.450;2022-12-18T07:39:40;-8.80;99.90
19292;DHT22;9779;51.756;7.450;2022-12-18T07:42:08;-8.80;99.90
19292;DHT22;9779;51.756;7.450;2022-12-18T07:44:53;-8.90;99.90
19292;DHT22;9779;51.756;7.450;2022-12-18T07:47:18;-8.90;99.90
19292;DHT22;9779;51.756;7.450;2022-12-18T07:49:44;-8.80;99.90
19292;DHT22;9779;51.756;7.450;2022-12-18T07:52:09;-8.80;99.90
19292;DHT22;9779;51.756;7.450;2022-12-18T07:54:35;-8.80;99.90
19292;DHT22;9779;51.756;7.450;2022-12-18T07:57:00;-8.80;99.90
19292;DHT22;9779;51.756;7.450;2022-12-18T07:59:26;-8.80;99.90
19292;DHT22;9779;51.756;7.450;2022-12-18T08:01:52;-8.70;99.90
19292;DHT22;9779;51.756;7.450;2022-12-18T08:04:17;-8.70;99.90
19292;DHT22;9779;51.756;7.450;2022-12-18T08:06:43;-8.70;99.90
19292;DHT22;9779;51.756;7.450;2022-12-18T08:09:10;-8.70;99.90
19292;DHT22;9779;51.756;7.450;2022-12-18T08:11:35;-8.70;99.90
19292;DHT22;9779;51.756;7.450;2022-12-18T08:14:01;-8.70;99.90
19292;DHT22;9779;51.756;7.450;2022-12-18T08:16:27;-8.60;99.90
19292;DHT22;9779;51.756;7.450;2022-12-18T08:18:53;-8.60;99.90
19292;DHT22;9779;51.756;7.450;2022-12-18T08:21:25;-8.60;99.90
19292;DHT22;9779;51.756;7.450;2022-12-18T08:23:52;-8.50;99.90
19292;DHT22;9779;51.756;7.450;2022-12-18T08:26:19;-8.50;99.90
19292;DHT22;9779;51.756;7.450;2022-12-18T08:28:45;-8.50;99.90
19292;DHT22;9779;51.756;7.450;2022-12-18T08:31:11;-8.40;99.90
19292;DHT22;9779;51.756;7.450;2022-12-18T08:33:38;-8.40;99.90
19292;DHT22;9779;51.756;7.450;2022-12-18T08:36:04;-8.30;99.90
19292;DHT22;9779;51.756;7.450;2022-12-18T08:38:31;-8.30;99.90
19292;DHT22;9779;51.756;7.450;2022-12-18T08:43:26;-8.10;99.90
19292;DHT22;9779;51.756;7.450;2022-12-18T08:46:10;-8.10;99.90
19292;DHT22;9779;51.756;7.450;2022-12-18T08:48:36;-8.10;99.90
19292;DHT22;9779;51.756;7.450;2022-12-18T08:51:02;-8.00;99.90
19292;DHT22;9779;51.756;7.450;2022-12-18T08:53:27;-8.00;99.90
19292;DHT22;9779;51.756;7.450;2022-12-18T08:55:53;-7.90;99.90
19292;DHT22;9779;51.756;7.450;2022-12-18T08:58:19;-7.80;99.90
19292;DHT22;9779;51.756;7.450;2022-12-18T09:00:45;-7.80;99.90
19292;DHT22;9779;51.756;7.450;2022-12-18T09:03:12;-7.80;99.90
19292;DHT22;9779;51.756;7.450;2022-12-18T09:08:10;-7.70;99.90
19292;DHT22;9779;51.756;7.450;2022-12-18T09:10:42;-7.60;99.90
19292;DHT22;9779;51.756;7.450;2022-12-18T09:13:10;-7.60;99.90
19292;DHT22;9779;51.756;7.450;2022-12-18T09:15:43;-7.60;99.90
19292;DHT22;9779;51.756;7.450;2022-12-18T09:18:10;-7.50;99.90
19292;DHT22;9779;51.756;7.450;2022-12-18T09:20:37;-7.50;99.90
19292;DHT22;9779;51.756;7.450;2022-12-18T09:23:02;-7.40;99.90
19292;DHT22;9779;51.756;7.450;2022-12-18T09:25:29;-7.30;99.90
19292;DHT22;9779;51.756;7.450;2022-12-18T09:28:25;-7.30;99.90
19292;DHT22;9779;51.756;7.450;2022-12-18T09:30:51;-7.20;99.90
19292;DHT22;9779;51.756;7.450;2022-12-18T09:33:17;-7.10;99.90
19292;DHT22;9779;51.756;7.450;2022-12-18T09:35:44;-7.10;99.90
19292;DHT22;9779;51.756;7.450;2022-12-18T09:38:15;-7.10;99.90
19292;DHT22;9779;51.756;7.450;2022-12-18T09:40:45;-7.00;99.90
19292;DHT22;9779;51.756;7.450;2022-12-18T09:43:19;-7.00;99.90
19292;DHT22;9779;51.756;7.450;2022-12-18T09:45:50;-6.90;99.90
19292;DHT22;9779;51.756;7.450;2022-12-18T09:48:26;-6.90;99.90
19292;DHT22;9779;51.756;7.450;2022-12-18T09:50:57;-6.90;99.90
19292;DHT22;9779;51.756;7.450;2022-12-18T09:53:27;-6.80;99.90
19292;DHT22;9779;51.756;7.450;2022-12-18T09:55:56;-6.70;99.90
19292;DHT22;9779;51.756;7.450;2022-12-18T09:58:33;-6.70;99.90
19292;DHT22;9779;51.756;7.450;2022-12-18T10:01:01;-6.60;99.90
19292;DHT22;9779;51.756;7.450;2022-12-18T10:03:27;-6.50;99.90
19292;DHT22;9779;51.756;7.450;2022-12-18T10:06:18;-6.30;99.90
19292;DHT22;9779;51.756;7.450;2022-12-18T10:11:46;-4.10;99.90
19292;DHT22;9779;51.756;7.450;2022-12-18T10:17:00;-4.70;99.90
19292;DHT22;9779;51.756;7.450;2022-12-18T10:22:30;-4.90;99.90
19292;DHT22;9779;51.756;7.450;2022-12-18T10:25:39;-4.90;99.90
19292;DHT22;9779;51.756;7.450;2022-12-18T10:27:58;-4.90;99.90
19292;DHT22;9779;51.756;7.450;2022-12-18T10:30:26;-4.80;99.90
19292;DHT22;9779;51.756;7.450;2022-12-18T10:32:52;-4.80;99.90
19292;DHT22;9779;51.756;7.450;2022-12-18T10:35:26;-4.70;99.90
19292;DHT22;9779;51.756;7.450;2022-12-18T10:40:29;-4.60;99.90
19292;DHT22;9779;51.756;7.450;2022-12-18T10:43:10;-4.50;99.90
19292;DHT22;9779;51.756;7.450;2022-12-18T10:45:36;-4.40;99.90
19292;DHT22;9779;51.756;7.450;2022-12-18T10:48:03;-4.40;99.90
19292;DHT22;9779;51.756;7.450;2022-12-18T10:50:33;-4.30;99.90
19292;DHT22;9779;51.756;7.450;2022-12-18T10:53:01;-4.20;99.90
19292;DHT22;9779;51.756;7.450;2022-12-18T10:55:38;-4.20;99.90
19292;DHT22;9779;51.756;7.450;2022-12-18T10:58:21;-4.20;99.90
19292;DHT22;9779;51.756;7.450;2022-12-18T11:03:44;-4.00;99.90
19292;DHT22;9779;51.756;7.450;2022-12-18T11:06:18;-3.90;99.90
19292;DHT22;9779;51.756;7.450;2022-12-18T11:09:17;-3.80;99.90
19292;DHT22;9779;51.756;7.450;2022-12-18T11:11:52;-3.80;99.90
19292;DHT22;9779;51.756;7.450;2022-12-18T11:16:53;-3.70;99.90
19292;DHT22;9779;51.756;7.450;2022-12-18T11:19:30;-3.60;99.90
19292;DHT22;9779;51.756;7.450;2022-12-18T11:21:57;-3.60;99.90
19292;DHT22;9779;51.756;7.450;2022-12-18T11:24:35;-3.50;99.90
19292;DHT22;9779;51.756;7.450;2022-12-18T11:27:03;-3.50;99.90
19292;DHT22;9779;51.756;7.450;2022-12-18T11:29:39;-3.40;99.90
19292;DHT22;9779;51.756;7.450;2022-12-18T11:34:45;-3.30;99.90
19292;DHT22;9779;51.756;7.450;2022-12-18T11:37:13;-3.30;99.90
19292;DHT22;9779;51.756;7.450;2022-12-18T11:39:45;-2.00;99.90
19292;DHT22;9779;51.756;7.450;2022-12-18T11:42:24;-2.20;99.90
19292;DHT22;9779;51.756;7.450;2022-12-18T11:48:05;-2.60;99.90
19292;DHT22;9779;51.756;7.450;2022-12-18T11:53:12;-2.70;99.90
19292;DHT22;9779;51.756;7.450;2022-12-18T11:58:35;-2.70;99.90
19292;DHT22;9779;51.756;7.450;2022-12-18T12:04:05;-2.70;99.90
19292;DHT22;9779;51.756;7.450;2022-12-18T12:06:57;-2.70;99.90
19292;DHT22;9779;51.756;7.450;2022-12-18T12:12:28;-2.70;99.90
19292;DHT22;9779;51.756;7.450;2022-12-18T12:15:19;-2.60;99.90
19292;DHT22;9779;51.756;7.450;2022-12-18T12:21:02;-2.60;99.90
19292;DHT22;9779;51.756;7.450;2022-12-18T12:23:50;-2.50;99.90
19292;DHT22;9779;51.756;7.450;2022-12-18T12:29:07;-2.50;99.90
19292;DHT22;9779;51.756;7.450;2022-12-18T12:37:53;-2.40;99.90
19292;DHT22;9779;51.756;7.450;2022-12-18T12:40:24;-2.40;99.90
19292;DHT22;9779;51.756;7.450;2022-12-18T12:42:59;-2.30;99.90
19292;DHT22;9779;51.756;7.450;2022-12-18T12:45:41;-2.30;99.90
19292;DHT22;9779;51.756;7.450;2022-12-18T12:48:17;-2.30;99.90
19292;DHT22;9779;51.756;7.450;2022-12-18T12:50:45;-2.30;99.90
19292;DHT22;9779;51.756;7.450;2022-12-18T12:53:27;-2.30;99.90
19292;DHT22;9779;51.756;7.450;2022-12-18T12:55:55;-2.30;99.90
19292;DHT22;9779;51.756;7.450;2022-12-18T13:01:36;-2.30;99.90
19292;DHT22;9779;51.756;7.450;2022-12-18T13:07:06;-2.10;99.90
19292;DHT22;9779;51.756;7.450;2022-12-18T13:10:13;-2.00;99.90
19292;DHT22;9779;51.756;7.450;2022-12-18T13:12:54;-2.10;99.90
19292;DHT22;9779;51.756;7.450;2022-12-18T13:15:48;-2.10;99.90
19292;DHT22;9779;51.756;7.450;2022-12-18T13:18:22;-2.10;99.90
19292;DHT22;9779;51.756;7.450;2022-12-18T13:28:52;-2.00;99.90
19292;DHT22;9779;51.756;7.450;2022-12-18T13:34:21;-2.00;99.90
19292;DHT22;9779;51.756;7.450;2022-12-18T13:36:49;-2.00;99.90
19292;DHT22;9779;51.756;7.450;2022-12-18T13:41:45;-2.00;99.90
19292;DHT22;9779;51.756;7.450;2022-12-18T13:44:12;-2.00;99.90
19292;DHT22;9779;51.756;7.450;2022-12-18T13:46:42;-2.00;99.90
19292;DHT22;9779;51.756;7.450;2022-12-18T13:49:38;-2.00;99.90
19292;DHT22;9779;51.756;7.450;2022-12-18T13:52:22;-1.90;99.90
19292;DHT22;9779;51.756;7.450;2022-12-18T13:54:54;-1.90;99.90
19292;DHT22;9779;51.756;7.450;2022-12-18T13:57:33;-1.90;99.90
19292;DHT22;9779;51.756;7.450;2022-12-18T14:02:49;-1.90;99.90
19292;DHT22;9779;51.756;7.450;2022-12-18T14:07:48;-1.90;99.90
19292;DHT22;9779;51.756;7.450;2022-12-18T14:10:15;-2.00;99.90
19292;DHT22;9779;51.756;7.450;2022-12-18T14:12:45;-2.00;99.90
19292;DHT22;9779;51.756;7.450;2022-12-18T14:15:41;-1.90;99.90
19292;DHT22;9779;51.756;7.450;2022-12-18T14:18:31;-1.90;99.90
19292;DHT22;9779;51.756;7.450;2022-12-18T14:21:00;-1.90;99.90
19292;DHT22;9779;51.756;7.450;2022-12-18T14:23:37;-1.90;99.90
19292;DHT22;9779;51.756;7.450;2022-12-18T14:26:24;-2.00;99.90
19292;DHT22;9779;51.756;7.450;2022-12-18T14:28:52;-2.00;99.90
19292;DHT22;9779;51.756;7.450;2022-12-18T14:31:21;-2.00;99.90
19292;DHT22;9779;51.756;7.450;2022-12-18T14:33:47;-2.00;99.90
19292;DHT22;9779;51.756;7.450;2022-12-18T14:36:17;-1.90;99.90
19292;DHT22;9779;51.756;7.450;2022-12-18T14:38:42;-2.00;99.90
19292;DHT22;9779;51.756;7.450;2022-12-18T14:41:13;-1.90;99.90
19292;DHT22;9779;51.756;7.450;2022-12-18T14:43:44;-2.00;99.90
19292;DHT22;9779;51.756;7.450;2022-12-18T14:46:36;-1.90;99.90
19292;DHT22;9779;51.756;7.450;2022-12-18T14:49:31;-2.00;99.90
19292;DHT22;9779;51.756;7.450;2022-12-18T14:52:03;-2.00;99.90
19292;DHT22;9779;51.756;7.450;2022-12-18T14:54:31;-1.90;99.90
19292;DHT22;9779;51.756;7.450;2022-12-18T14:57:01;-1.90;99.90
19292;DHT22;9779;51.756;7.450;2022-12-18T14:59:31;-1.90;99.90
19292;DHT22;9779;51.756;7.450;2022-12-18T15:04:35;-1.90;99.90
19292;DHT22;9779;51.756;7.450;2022-12-18T15:07:16;-1.90;99.90
19292;DHT22;9779;51.756;7.450;2022-12-18T15:10:30;-1.90;99.90
19292;DHT22;9779;51.756;7.450;2022-12-18T15:12:43;-1.90;99.90
19292;DHT22;9779;51.756;7.450;2022-12-18T15:20:52;-1.90;99.90
19292;DHT22;9779;51.756;7.450;2022-12-18T15:25:46;-1.90;99.90
19292;DHT22;9779;51.756;7.450;2022-12-18T15:28:24;-1.90;99.90
19292;DHT22;9779;51.756;7.450;2022-12-18T15:33:31;-1.80;99.90
19292;DHT22;9779;51.756;7.450;2022-12-18T15:36:07;-1.70;99.90
19292;DHT22;9779;51.756;7.450;2022-12-18T15:38:33;-1.70;99.90
19292;DHT22;9779;51.756;7.450;2022-12-18T15:40:59;-1.70;99.90
19292;DHT22;9779;51.756;7.450;2022-12-18T15:43:25;-1.70;99.90
19292;DHT22;9779;51.756;7.450;2022-12-18T15:46:21;-1.80;99.90
19292;DHT22;9779;51.756;7.450;2022-12-18T15:48:49;-1.80;99.90
19292;DHT22;9779;51.756;7.450;2022-12-18T15:51:18;-1.70;99.90
19292;DHT22;9779;51.756;7.450;2022-12-18T15:53:46;-1.80;99.90
19292;DHT22;9779;51.756;7.450;2022-12-18T15:56:13;-1.80;99.90
19292;DHT22;9779;51.756;7.450;2022-12-18T15:58:58;-1.80;99.90
19292;DHT22;9779;51.756;7.450;2022-12-18T16:01:26;-1.70;99.90
19292;DHT22;9779;51.756;7.450;2022-12-18T16:03:52;-1.70;99.90
19292;DHT22;9779;51.756;7.450;2022-12-18T16:06:19;-1.70;99.90
19292;DHT22;9779;51.756;7.450;2022-12-18T16:08:44;-1.70;99.90
19292;DHT22;9779;51.756;7.450;2022-12-18T16:11:25;-1.70;99.90
19292;DHT22;9779;51.756;7.450;2022-12-18T16:16:49;-1.70;99.90
19292;DHT22;9779;51.756;7.450;2022-12-18T16:19:15;-1.70;99.90
19292;DHT22;9779;51.756;7.450;2022-12-18T16:21:41;-1.70;99.90
19292;DHT22;9779;51.756;7.450;2022-12-18T16:24:27;-1.70;99.90
19292;DHT22;9779;51.756;7.450;2022-12-18T16:26:55;-1.70;99.90
19292;DHT22;9779;51.756;7.450;2022-12-18T16:29:21;-1.70;99.90
19292;DHT22;9779;51.756;7.450;2022-12-18T16:31:53;-1.70;99.90
19292;DHT22;9779;51.756;7.450;2022-12-18T16:34:24;-1.70;99.90
19292;DHT22;9779;51.756;7.450;2022-12-18T16:37:04;-1.70;99.90
19292;DHT22;9779;51.756;7.450;2022-12-18T16:39:31;-1.70;99.90
19292;DHT22;9779;51.756;7.450;2022-12-18T16:41:58;-1.70;99.90
19292;DHT22;9779;51.756;7.450;2022-12-18T16:44:24;-1.70;99.90
19292;DHT22;9779;51.756;7.450;2022-12-18T16:46:49;-1.70;99.90
19292;DHT22;9779;51.756;7.450;2022-12-18T16:49:17;-1.70;99.90
19292;DHT22;9779;51.756;7.450;2022-12-18T16:51:43;-1.70;99.90
19292;DHT22;9779;51.756;7.450;2022-12-18T16:54:09;-1.70;99.90
19292;DHT22;9779;51.756;7.450;2022-12-18T16:56:34;-1.70;99.90
19292;DHT22;9779;51.756;7.450;2022-12-18T16:59:02;-1.70;99.90
19292;DHT22;9779;51.756;7.450;2022-12-18T17:01:29;-1.70;99.90
19292;DHT22;9779;51.756;7.450;2022-12-18T17:03:59;-1.70;99.90
19292;DHT22;9779;51.756;7.450;2022-12-18T17:06:27;-1.70;99.90
19292;DHT22;9779;51.756;7.450;2022-12-18T17:09:01;-1.70;99.90
19292;DHT22;9779;51.756;7.450;2022-12-18T17:11:29;-1.70;99.90
19292;DHT22;9779;51.756;7.450;2022-12-18T17:13:55;-1.70;99.90
19292;DHT22;9779;51.756;7.450;2022-12-18T17:16:21;-1.70;99.90
19292;DHT22;9779;51.756;7.450;2022-12-18T17:18:47;-1.70;99.90
19292;DHT22;9779;51.756;7.450;2022-12-18T17:21:13;-1.70;99.90
19292;DHT22;9779;51.756;7.450;2022-12-18T17:23:40;-1.70;99.90
19292;DHT22;9779;51.756;7.450;2022-12-18T17:26:08;-1.70;99.90
19292;DHT22;9779;51.756;7.450;2022-12-18T17:28:36;-1.70;99.90
19292;DHT22;9779;51.756;7.450;2022-12-18T17:31:10;-1.70;99.90
19292;DHT22;9779;51.756;7.450;2022-12-18T17:33:36;-1.70;99.90
19292;DHT22;9779;51.756;7.450;2022-12-18T17:36:01;-1.70;99.90
19292;DHT22;9779;51.756;7.450;2022-12-18T17:38:27;-1.70;99.90
19292;DHT22;9779;51.756;7.450;2022-12-18T17:40:53;-1.70;99.90
19292;DHT22;9779;51.756;7.450;2022-12-18T17:43:18;-1.70;99.90
19292;DHT22;9779;51.756;7.450;2022-12-18T17:45:44;-1.70;99.90
19292;DHT22;9779;51.756;7.450;2022-12-18T17:48:09;-1.70;99.90
19292;DHT22;9779;51.756;7.450;2022-12-18T17:50:35;-1.70;99.90